Time;durP1;ratioP1;P1;durP2;ratioP2;P2;SDS_P1;SDS_P2;PMS_P1;PMS_P2;Temp;Humidity;BMP_temperature;BMP_pressure;BME280_temperature;BME280_humidity;BME280_pressure;Samples;Min_cycle;Max_cycle;Signal;HPM_P1;HPM_P2
2023/06/08 00:00:27;;;;;;;8.23;4.93;;;;;;;20.48;36.19;101276.28;5055476;28;20060;-73
2023/06/08 00:03:04;;;;;;;7.75;5.70;;;;;;;20.47;36.17;101269.84;5042305;28;20139;-70
2023/06/08 00:05:43;;;;;;;6.47;5.40;;;;;;;20.47;36.43;101277.31;5058698;28;20045;-71
2023/06/08 00:08:12;;;;;;;7.43;4.90;;;;;;;20.46;36.23;101283.94;5061371;28;20071;-72
2023/06/08 00:10:42;;;;;;;5.95;4.85;;;;;;;20.47;36.02;101269.84;5055729;28;20237;-73
2023/06/08 00:13:10;;;;;;;8.55;5.60;;;;;;;20.44;36.44;101267.47;5041580;28;20373;-73
2023/06/08 00:15:39;;;;;;;7.63;6.13;;;;;;;20.44;36.32;101266.59;5041524;28;20048;-73
2023/06/08 00:18:08;;;;;;;7.22;5.78;;;;;;;20.44;36.39;101261.03;5060832;28;20116;-73
2023/06/08 00:20:39;;;;;;;7.13;5.63;;;;;;;20.45;36.25;101257.22;5040055;28;20087;-73
2023/06/08 00:23:07;;;;;;;7.88;6.07;;;;;;;20.42;36.46;101260.38;5058349;28;20048;-73
2023/06/08 00:25:35;;;;;;;7.85;5.88;;;;;;;20.39;36.09;101259.69;5044701;28;20072;-70
2023/06/08 00:28:02;;;;;;;8.48;6.45;;;;;;;20.37;36.23;101259.00;5061855;28;20302;-72
2023/06/08 00:30:30;;;;;;;6.88;6.13;;;;;;;20.35;36.33;101263.91;5056311;28;20713;-73
2023/06/08 00:32:58;;;;;;;7.82;5.65;;;;;;;20.35;36.62;101266.69;5044914;28;20457;-72
2023/06/08 00:35:26;;;;;;;7.15;5.63;;;;;;;20.33;36.47;101270.69;5040307;28;20045;-72
2023/06/08 00:37:56;;;;;;;7.18;6.15;;;;;;;20.33;36.47;101266.00;5056488;28;20040;-72
2023/06/08 00:40:24;;;;;;;6.72;5.38;;;;;;;20.30;36.44;101260.81;5059781;28;20135;-71
2023/06/08 00:42:51;;;;;;;8.00;6.07;;;;;;;20.29;36.61;101272.09;5060950;28;20519;-73
2023/06/08 00:45:19;;;;;;;8.25;6.20;;;;;;;20.28;36.32;101262.06;5060559;28;20080;-71
2023/06/08 00:47:47;;;;;;;7.22;6.00;;;;;;;20.27;36.52;101263.13;5063096;28;20434;-73
2023/06/08 00:50:18;;;;;;;8.43;6.20;;;;;;;20.25;36.76;101265.22;5060105;28;21339;-72
2023/06/08 00:52:46;;;;;;;9.55;6.30;;;;;;;20.23;36.79;101261.75;5058176;28;20038;-73
2023/06/08 00:55:19;;;;;;;8.45;6.25;;;;;;;20.23;36.50;101259.84;5064845;28;20037;-73
2023/06/08 00:57:48;;;;;;;7.47;6.07;;;;;;;20.20;36.39;101259.38;5041250;28;20131;-72
2023/06/08 01:00:17;;;;;;;7.60;6.28;;;;;;;20.18;36.83;101261.47;5037283;28;20056;-72
2023/06/08 01:02:45;;;;;;;6.82;5.78;;;;;;;20.15;36.54;101257.13;5058754;28;20569;-73
2023/06/08 01:05:16;;;;;;;7.93;6.13;;;;;;;20.14;36.63;101263.75;5038370;28;20135;-72
2023/06/08 01:07:53;;;;;;;8.48;6.28;;;;;;;20.15;37.22;101257.13;5035356;28;20049;-72
2023/06/08 01:10:32;;;;;;;6.78;5.82;;;;;;;20.13;37.21;101248.13;5054632;28;20048;-72
2023/06/08 01:13:07;;;;;;;8.05;5.65;;;;;;;20.11;37.28;101254.94;5043158;28;20045;-72
2023/06/08 01:15:40;;;;;;;7.78;5.70;;;;;;;20.10;36.94;101254.06;5056228;28;20045;-72
2023/06/08 01:18:10;;;;;;;7.75;5.70;;;;;;;20.07;36.82;101248.00;5063215;28;20438;-73
2023/06/08 01:20:49;;;;;;;6.75;5.43;;;;;;;20.08;37.16;101255.28;5043008;28;20127;-72
2023/06/08 01:23:34;;;;;;;7.13;5.70;;;;;;;20.07;36.93;101256.34;5045055;28;20049;-72
2023/06/08 01:26:05;;;;;;;8.15;6.00;;;;;;;20.03;37.24;101258.66;5033995;28;21420;-71
2023/06/08 01:28:38;;;;;;;8.35;6.10;;;;;;;19.99;36.88;101252.59;5058925;28;20059;-73
2023/06/08 01:31:06;;;;;;;7.53;6.00;;;;;;;19.99;36.84;101257.28;5057438;28;20078;-73
2023/06/08 01:33:37;;;;;;;7.72;5.70;;;;;;;19.97;36.93;101256.59;5044272;28;20043;-71
2023/06/08 01:36:12;;;;;;;9.00;5.78;;;;;;;19.97;37.28;101253.81;5038467;28;20155;-72
2023/06/08 01:38:48;;;;;;;7.60;5.82;;;;;;;19.95;37.45;101255.94;5052679;28;20506;-72
2023/06/08 01:41:21;;;;;;;7.78;6.38;;;;;;;19.93;37.50;101250.56;5056762;28;20495;-72
2023/06/08 01:43:51;;;;;;;7.22;5.82;;;;;;;19.91;37.30;101260.13;5041142;28;20135;-73
2023/06/08 01:46:21;;;;;;;7.88;5.60;;;;;;;19.88;37.17;101263.22;5059993;28;20131;-72
2023/06/08 01:48:51;;;;;;;7.75;5.43;;;;;;;19.86;37.25;101260.66;5061695;28;20421;-72
2023/06/08 01:51:20;;;;;;;8.73;5.95;;;;;;;19.84;37.15;101259.97;5053212;28;20135;-71
2023/06/08 01:53:48;;;;;;;7.60;5.82;;;;;;;19.81;37.58;101256.69;5062732;28;20523;-73
2023/06/08 01:56:17;;;;;;;8.50;6.00;;;;;;;19.81;37.59;101254.78;5062706;28;20526;-73
2023/06/08 01:58:45;;;;;;;8.75;5.72;;;;;;;19.77;37.34;101253.44;5037433;28;20044;-72
2023/06/08 02:01:13;;;;;;;8.02;6.10;;;;;;;19.75;37.72;101252.75;5037126;28;20063;-73
2023/06/08 02:03:41;;;;;;;7.95;6.15;;;;;;;19.74;38.03;101250.16;5059208;28;20040;-72
2023/06/08 02:06:09;;;;;;;7.68;5.78;;;;;;;19.72;38.02;101238.38;5039794;28;20072;-72
2023/06/08 02:08:38;;;;;;;7.63;5.72;;;;;;;19.70;37.63;101240.47;5059988;28;20045;-73
2023/06/08 02:11:07;;;;;;;6.90;5.78;;;;;;;19.67;38.04;101236.16;5037150;28;20048;-71
2023/06/08 02:13:41;;;;;;;7.68;5.65;;;;;;;19.68;38.33;101243.44;5042386;28;20044;-72
2023/06/08 02:16:10;;;;;;;10.05;6.07;;;;;;;19.60;37.82;101238.81;5043198;28;20041;-71
2023/06/08 02:18:40;;;;;;;8.88;5.72;;;;;;;19.61;37.89;101237.78;5055033;28;20477;-73
2023/06/08 02:21:09;;;;;;;7.90;5.43;;;;;;;19.60;37.93;101235.16;5053183;28;20049;-73
2023/06/08 02:23:37;;;;;;;8.40;5.85;;;;;;;19.59;37.98;101236.22;5059658;28;20075;-73
2023/06/08 02:26:06;;;;;;;8.45;6.10;;;;;;;19.58;38.33;101235.34;5047804;28;20079;-72
2023/06/08 02:28:35;;;;;;;7.57;5.80;;;;;;;19.56;38.52;101237.44;5058512;28;20501;-73
2023/06/08 02:31:05;;;;;;;8.85;5.80;;;;;;;19.57;38.56;101227.19;5053217;28;20090;-71
2023/06/08 02:33:33;;;;;;;8.27;5.97;;;;;;;19.55;38.16;101234.84;5055947;28;20095;-73
2023/06/08 02:36:01;;;;;;;8.38;5.97;;;;;;;19.54;38.24;101230.38;5039927;28;20131;-71
2023/06/08 02:38:30;;;;;;;7.55;6.20;;;;;;;19.53;38.40;101229.50;5042915;28;20036;-73
2023/06/08 02:41:00;;;;;;;9.05;6.15;;;;;;;19.52;38.00;101230.53;5057182;28;20479;-72
2023/06/08 02:43:27;;;;;;;9.15;5.72;;;;;;;19.50;38.56;101238.19;5042608;28;20052;-71
2023/06/08 02:45:55;;;;;;;8.18;6.25;;;;;;;19.50;38.29;101235.41;5045534;28;20476;-73
2023/06/08 02:48:28;;;;;;;8.32;5.88;;;;;;;19.50;38.37;101240.09;5037485;28;20069;-70
2023/06/08 02:50:56;;;;;;;9.32;6.13;;;;;;;19.47;38.09;101237.66;5035947;28;20277;-71
2023/06/08 02:53:24;;;;;;;9.88;5.93;;;;;;;19.44;38.01;101230.59;5040190;28;20047;-71
2023/06/08 02:55:53;;;;;;;7.15;5.38;;;;;;;19.42;38.40;101243.78;5057584;28;20242;-72
2023/06/08 02:58:25;;;;;;;7.65;5.78;;;;;;;19.40;38.10;101239.44;5039792;28;20094;-71
2023/06/08 03:00:54;;;;;;;7.80;5.70;;;;;;;19.38;38.50;101245.19;5039435;28;20044;-72
2023/06/08 03:03:54;;;;;;;8.60;5.88;;;;;;;19.37;38.12;101239.84;5038585;28;20048;-72
2023/06/08 03:06:33;;;;;;;7.82;5.55;;;;;;;19.33;38.54;101242.09;5040586;28;20047;-73
2023/06/08 03:09:01;;;;;;;;;;;;;;;19.04;39.10;101237.22;5058296;28;20131;-72
2023/06/08 03:11:32;;;;;;;8.88;5.28;;;;;;;19.26;38.23;101238.34;5054576;28;19921;-71
2023/06/08 03:14:03;;;;;;;10.38;5.22;;;;;;;19.29;38.15;101234.34;5038224;28;20056;-72
2023/06/08 03:16:33;;;;;;;8.48;5.80;;;;;;;19.26;38.61;101230.88;5041179;28;20070;-72
2023/06/08 03:19:04;;;;;;;7.70;5.70;;;;;;;19.26;38.40;101232.78;5047519;28;20064;-71
2023/06/08 03:21:36;;;;;;;9.43;6.00;;;;;;;19.25;38.35;101231.06;5036957;28;20122;-72
2023/06/08 03:24:06;;;;;;;8.05;5.95;;;;;;;19.22;38.71;101231.41;5042032;28;20143;-71
2023/06/08 03:26:36;;;;;;;9.35;6.25;;;;;;;19.20;38.48;101220.50;5043781;28;20040;-70
2023/06/08 03:29:04;;;;;;;7.55;5.57;;;;;;;19.19;38.40;101228.97;5040071;28;20041;-72
2023/06/08 03:31:36;;;;;;;8.05;5.97;;;;;;;19.17;38.59;101222.75;5040702;28;20511;-71
2023/06/08 03:34:09;;;;;;;9.48;5.47;;;;;;;19.16;38.63;101221.88;5045501;28;20041;-72
2023/06/08 03:36:38;;;;;;;7.55;5.75;;;;;;;19.13;38.36;101222.22;5040373;28;20491;-71
2023/06/08 03:39:16;;;;;;;9.20;5.53;;;;;;;19.11;38.52;101218.78;5044530;28;20067;-71
2023/06/08 03:41:44;;;;;;;6.72;5.10;;;;;;;19.11;38.30;101217.94;5039785;28;20411;-71
2023/06/08 03:44:13;;;;;;;7.53;5.50;;;;;;;19.08;38.43;101219.16;5060498;28;20080;-71
2023/06/08 03:46:42;;;;;;;8.32;5.65;;;;;;;19.08;38.80;101216.38;5041979;28;20033;-73
2023/06/08 03:49:12;;;;;;;8.30;5.57;;;;;;;19.08;38.61;101216.38;5044069;28;20044;-71
2023/06/08 03:51:40;;;;;;;9.23;5.55;;;;;;;19.07;38.39;101222.09;5056091;28;20350;-71
2023/06/08 03:54:08;;;;;;;9.05;5.90;;;;;;;19.05;38.36;101216.72;5044921;28;20674;-72
2023/06/08 03:56:36;;;;;;;8.27;5.60;;;;;;;19.04;38.83;101214.16;5059396;28;20103;-71
2023/06/08 03:59:04;;;;;;;8.57;5.97;;;;;;;19.04;38.34;101211.38;5059490;28;20151;-72
2023/06/08 04:01:35;;;;;;;8.88;5.25;;;;;;;19.03;38.74;101212.41;5037994;28;20056;-72
2023/06/08 04:04:03;;;;;;;10.38;5.50;;;;;;;19.01;38.81;101208.97;5041366;28;20072;-71
2023/06/08 04:06:34;;;;;;;8.90;5.65;;;;;;;19.03;38.35;101215.19;5046591;28;20457;-71
2023/06/08 04:09:06;;;;;;;8.98;5.35;;;;;;;19.00;38.32;101215.53;5041945;28;20036;-71
2023/06/08 04:11:34;;;;;;;8.50;5.55;;;;;;;18.99;38.35;101213.81;5040323;28;20048;-72
2023/06/08 04:14:02;;;;;;;7.50;5.28;;;;;;;18.98;38.65;101212.94;5061672;28;20066;-72
2023/06/08 04:16:32;;;;;;;7.65;5.05;;;;;;;18.99;38.58;101219.34;5044010;28;20048;-72
2023/06/08 04:19:00;;;;;;;7.45;5.40;;;;;;;18.98;38.92;101214.84;5047705;28;20229;-72
2023/06/08 04:21:29;;;;;;;8.77;5.60;;;;;;;18.97;38.49;101218.66;5041482;28;20053;-72
2023/06/08 04:24:07;;;;;;;7.70;5.28;;;;;;;18.97;38.88;101216.75;5059992;28;20436;-71
2023/06/08 04:26:38;;;;;;;9.05;5.53;;;;;;;18.93;38.86;101226.50;5056037;28;20048;-72
2023/06/08 04:29:06;;;;;;;8.27;5.53;;;;;;;18.95;38.33;101224.44;5044484;28;20070;-72
2023/06/08 04:31:38;;;;;;;8.32;5.72;;;;;;;18.92;38.54;101219.22;5037276;28;20165;-72
2023/06/08 04:34:06;;;;;;;7.45;5.70;;;;;;;18.94;38.49;101216.28;5041272;28;20133;-72
2023/06/08 04:36:35;;;;;;;8.85;5.38;;;;;;;18.94;38.69;101221.81;5041030;28;20044;-72
2023/06/08 04:39:03;;;;;;;7.10;5.60;;;;;;;18.94;38.48;101221.81;5046135;28;20118;-70
2023/06/08 04:41:33;;;;;;;8.55;5.78;;;;;;;18.95;38.61;101218.88;5046671;28;20592;-71
2023/06/08 04:44:03;;;;;;;8.85;5.78;;;;;;;18.94;38.80;101221.81;5043188;28;20243;-71
2023/06/08 04:46:37;;;;;;;7.40;5.78;;;;;;;18.94;38.47;101219.06;5060859;28;20063;-72
2023/06/08 04:49:06;;;;;;;7.50;5.47;;;;;;;18.94;38.89;101222.69;5058310;28;20059;-70
2023/06/08 04:51:39;;;;;;;8.55;5.55;;;;;;;18.94;38.65;101219.06;5038778;28;20044;-72
2023/06/08 04:54:13;;;;;;;8.20;5.68;;;;;;;18.94;38.66;101225.47;5062758;28;20036;-72
2023/06/08 04:56:45;;;;;;;9.60;5.43;;;;;;;18.96;38.86;101226.16;5040439;28;20416;-71
2023/06/08 04:59:15;;;;;;;8.90;5.80;;;;;;;18.95;38.65;101218.88;5058456;28;20044;-71
2023/06/08 05:01:42;;;;;;;7.70;5.22;;;;;;;18.96;38.66;101223.38;5044437;28;20456;-70
2023/06/08 05:04:10;;;;;;;9.93;5.65;;;;;;;18.98;39.26;101226.81;5059701;28;20056;-72
2023/06/08 05:06:39;;;;;;;8.23;5.55;;;;;;;19.03;39.22;101220.75;5039851;28;20068;-71
2023/06/08 05:09:07;;;;;;;11.30;6.13;;;;;;;19.11;39.30;101221.56;5060723;28;20573;-73
2023/06/08 05:11:35;;;;;;;7.63;5.45;;;;;;;19.22;39.30;101228.63;5038344;28;20098;-72
2023/06/08 05:14:04;;;;;;;9.15;5.95;;;;;;;19.40;39.24;101228.34;5062136;28;20070;-72
2023/06/08 05:16:35;;;;;;;9.07;6.32;;;;;;;19.53;39.46;101223.94;5051690;28;20050;-72
2023/06/08 05:19:03;;;;;;;8.63;5.60;;;;;;;19.75;38.91;101224.97;5038797;28;20134;-72
2023/06/08 05:21:32;;;;;;;8.57;5.60;;;;;;;19.95;39.24;101234.56;5038368;28;20156;-71
2023/06/08 05:24:00;;;;;;;7.13;5.25;;;;;;;20.18;39.10;101225.34;5060957;28;20072;-72
2023/06/08 05:26:28;;;;;;;8.15;5.43;;;;;;;20.40;38.56;101230.81;5062658;28;20048;-72
2023/06/08 05:28:56;;;;;;;8.57;5.70;;;;;;;20.62;38.32;101228.19;5060413;28;20067;-71
2023/06/08 05:31:30;;;;;;;8.25;5.55;;;;;;;20.89;37.88;101227.50;5060315;23;20030;-84
2023/06/08 05:33:58;;;;;;;7.82;5.53;;;;;;;21.10;37.54;101238.72;5079919;28;20044;-82
2023/06/08 05:36:53;;;;;;;7.28;5.15;;;;;;;21.33;37.27;101234.97;5059508;28;20052;-82
2023/06/08 05:39:27;;;;;;;7.57;5.32;;;;;;;21.57;36.44;101226.22;5093888;28;20040;-82
2023/06/08 05:41:58;;;;;;;9.63;5.78;;;;;;;21.76;36.48;101233.94;5085041;28;20040;-82
2023/06/08 05:44:30;;;;;;;8.63;5.22;;;;;;;21.95;36.14;101226.84;5102840;28;20059;-83
2023/06/08 05:47:00;;;;;;;6.85;4.80;;;;;;;22.15;35.99;101218.66;5101130;28;20112;-83
2023/06/08 05:49:28;;;;;;;8.98;5.55;;;;;;;22.29;35.52;101220.50;5073606;23;20072;-72
2023/06/08 05:51:56;;;;;;;7.15;5.50;;;;;;;22.44;35.36;101224.03;5057842;28;20053;-72
2023/06/08 05:54:24;;;;;;;8.63;5.68;;;;;;;22.57;35.44;101220.53;5054759;28;20499;-72
2023/06/08 05:56:52;;;;;;;7.18;6.10;;;;;;;22.69;34.90;101220.78;5057145;28;20135;-72
2023/06/08 05:59:20;;;;;;;9.57;6.03;;;;;;;22.80;34.61;101223.00;5062784;28;20040;-72
2023/06/08 06:01:49;;;;;;;8.05;5.80;;;;;;;22.88;34.54;101226.50;5054101;28;20501;-72
2023/06/08 06:04:18;;;;;;;9.05;5.70;;;;;;;22.99;34.06;101222.25;5057252;28;20145;-72
2023/06/08 06:07:03;;;;;;;8.05;5.85;;;;;;;23.02;34.18;101228.28;5058992;28;20047;-72
2023/06/08 06:09:31;;;;;;;6.97;5.75;;;;;;;23.08;33.78;101222.94;5058103;28;20033;-72
2023/06/08 06:11:59;;;;;;;6.85;5.28;;;;;;;23.15;33.96;101221.03;5053517;28;20045;-73
2023/06/08 06:14:28;;;;;;;7.93;5.97;;;;;;;23.19;33.64;101223.22;5040609;28;20499;-72
2023/06/08 06:16:56;;;;;;;9.77;5.82;;;;;;;23.19;33.63;101216.78;5057639;28;20074;-72
2023/06/08 06:19:37;;;;;;;6.97;5.25;;;;;;;23.25;33.28;101221.56;5057575;28;20116;-71
2023/06/08 06:22:06;;;;;;;6.72;5.05;;;;;;;23.26;33.60;101226.91;5055200;28;20049;-72
2023/06/08 06:24:34;;;;;;;7.68;5.05;;;;;;;23.28;33.50;101226.69;5056063;28;20460;-72
2023/06/08 06:27:03;;;;;;;6.35;5.05;;;;;;;23.32;33.46;101220.50;5053740;28;20053;-72
2023/06/08 06:29:31;;;;;;;7.60;5.32;;;;;;;23.36;33.51;101227.38;5058534;28;20090;-72
2023/06/08 06:31:59;;;;;;;7.15;5.00;;;;;;;23.42;33.20;101222.88;5056298;28;20060;-72
2023/06/08 06:34:27;;;;;;;7.40;5.47;;;;;;;23.45;32.97;101224.38;5058925;28;20107;-72
2023/06/08 06:36:57;;;;;;;7.72;5.68;;;;;;;23.51;32.77;101223.53;5060789;28;20597;-72
2023/06/08 06:39:25;;;;;;;6.55;5.28;;;;;;;23.51;32.47;101226.34;5046891;28;20476;-72
2023/06/08 06:41:53;;;;;;;7.50;5.47;;;;;;;23.50;32.27;101219.88;5060548;28;20142;-73
2023/06/08 06:44:24;;;;;;;9.50;5.35;;;;;;;23.51;32.27;101230.00;5071836;28;20052;-73
2023/06/08 06:46:51;;;;;;;8.40;5.80;;;;;;;23.50;32.33;101230.19;5044522;28;20048;-73
2023/06/08 06:49:19;;;;;;;6.43;4.90;;;;;;;23.50;32.21;101230.19;5045803;28;20045;-72
2023/06/08 06:51:47;;;;;;;8.10;5.65;;;;;;;23.51;32.47;101238.38;5069596;28;20094;-72
2023/06/08 06:54:17;;;;;;;8.32;5.20;;;;;;;23.55;32.66;101234.09;5047411;28;20067;-73
2023/06/08 06:56:47;;;;;;;6.97;5.10;;;;;;;23.55;32.77;101228.50;5061921;28;20041;-62
2023/06/08 06:59:15;;;;;;;6.93;4.90;;;;;;;23.63;32.85;101233.91;5065312;28;20119;-63
2023/06/08 07:01:43;;;;;;;7.60;4.72;;;;;;;23.70;32.55;101228.31;5067087;28;20080;-62
2023/06/08 07:04:11;;;;;;;7.57;4.97;;;;;;;23.76;32.49;101225.56;5066171;28;20048;-62
2023/06/08 07:06:41;;;;;;;6.03;4.72;;;;;;;23.83;32.81;101233.09;5056113;28;20040;-63
2023/06/08 07:09:09;;;;;;;6.93;4.75;;;;;;;23.91;32.44;101224.53;5069103;28;20078;-61
2023/06/08 07:11:39;;;;;;;6.05;4.50;;;;;;;24.01;32.49;101227.75;5064989;28;20151;-61
2023/06/08 07:14:06;;;;;;;5.82;4.60;;;;;;;24.08;32.66;101217.41;5050038;28;20135;-63
2023/06/08 07:16:34;;;;;;;6.32;5.10;;;;;;;24.13;32.14;101229.69;5059722;28;20114;-63
2023/06/08 07:19:03;;;;;;;6.22;4.80;;;;;;;24.22;32.02;101218.28;5065905;28;20132;-63
2023/06/08 07:21:30;;;;;;;6.15;4.53;;;;;;;24.28;32.12;101211.81;5070271;28;20044;-60
2023/06/08 07:24:08;;;;;;;7.00;4.80;;;;;;;24.36;32.12;101226.47;5049173;28;20500;-63
2023/06/08 07:26:57;;;;;;;6.25;4.50;;;;;;;24.45;32.00;101224.31;5050322;28;20103;-63
2023/06/08 07:29:25;;;;;;;6.20;4.68;;;;;;;24.50;32.13;101214.19;5057797;28;20048;-62
2023/06/08 07:31:53;;;;;;;6.25;4.57;;;;;;;24.60;31.99;101213.75;5054319;28;20056;-62
2023/06/08 07:34:21;;;;;;;5.68;4.45;;;;;;;24.69;32.17;101217.16;5051398;28;20689;-63
2023/06/08 07:36:49;;;;;;;6.93;4.75;;;;;;;24.77;32.14;101217.78;5060610;28;20049;-63
2023/06/08 07:39:17;;;;;;;7.10;4.90;;;;;;;24.87;31.72;101223.81;5062100;28;20484;-62
2023/06/08 07:41:45;;;;;;;6.25;4.70;;;;;;;24.96;31.62;101226.41;5059282;28;20722;-62
2023/06/08 07:44:14;;;;;;;6.97;5.05;;;;;;;25.06;31.37;101216.41;5058301;28;20131;-62
2023/06/08 07:46:42;;;;;;;6.35;4.55;;;;;;;25.12;31.31;101226.75;5057398;28;20057;-62
2023/06/08 07:49:10;;;;;;;7.55;4.55;;;;;;;25.19;31.18;101215.53;5057654;28;20045;-63
2023/06/08 07:51:38;;;;;;;5.75;4.60;;;;;;;25.24;30.94;101222.16;5060392;28;20482;-63
2023/06/08 07:54:06;;;;;;;6.60;4.63;;;;;;;25.30;30.93;101211.16;5061171;28;20044;-63
2023/06/08 07:56:34;;;;;;;5.97;4.60;;;;;;;25.34;30.67;101216.09;5047739;28;20110;-62
2023/06/08 07:59:02;;;;;;;7.47;4.80;;;;;;;25.38;31.25;101210.91;5061867;28;20479;-62
2023/06/08 08:01:32;;;;;;;6.38;4.68;;;;;;;25.45;30.93;101221.00;5061446;28;20041;-62
2023/06/08 08:03:59;;;;;;;6.50;4.65;;;;;;;25.48;30.63;101214.06;5060095;28;20052;-62
2023/06/08 08:06:27;;;;;;;5.85;4.40;;;;;;;25.53;30.94;101208.69;5064858;28;20098;-62
2023/06/08 08:08:55;;;;;;;7.65;5.38;;;;;;;25.58;30.98;101212.53;5055946;28;20068;-62
2023/06/08 08:11:23;;;;;;;7.65;4.65;;;;;;;25.64;30.74;101205.16;5058123;28;20088;-62
2023/06/08 08:13:51;;;;;;;6.07;4.25;;;;;;;25.68;30.75;101206.44;5061425;28;20057;-63
2023/06/08 08:16:19;;;;;;;6.40;4.88;;;;;;;25.75;30.62;101209.19;5062100;28;20060;-63
2023/06/08 08:18:49;;;;;;;6.07;4.63;;;;;;;25.81;30.31;101192.31;5045048;28;20052;-63
2023/06/08 08:21:17;;;;;;;6.32;4.47;;;;;;;25.84;30.24;101197.47;5058234;28;20052;-63
2023/06/08 08:23:45;;;;;;;7.03;4.47;;;;;;;25.88;30.13;101204.38;5062626;28;20147;-62
2023/06/08 08:26:13;;;;;;;6.90;4.35;;;;;;;25.92;30.43;101194.41;5063845;28;20052;-62
2023/06/08 08:28:44;;;;;;;5.57;4.78;;;;;;;25.95;30.02;101193.94;5062684;28;20056;-62
2023/06/08 08:31:12;;;;;;;6.93;4.50;;;;;;;25.95;30.10;101193.94;5056759;28;20068;-62
2023/06/08 08:33:40;;;;;;;7.10;4.43;;;;;;;26.01;29.95;101192.16;5058921;28;20329;-62
2023/06/08 08:36:10;;;;;;;5.80;4.82;;;;;;;26.05;29.63;101189.78;5062636;28;20075;-64
2023/06/08 08:38:39;;;;;;;6.35;4.95;;;;;;;26.05;30.04;101196.22;5061516;28;20040;-63
2023/06/08 08:41:11;;;;;;;6.70;4.85;;;;;;;26.06;29.49;101186.72;5057774;28;20558;-62
2023/06/08 08:43:48;;;;;;;5.95;4.32;;;;;;;26.09;29.63;101191.06;5057075;28;20037;-67
2023/06/08 08:46:17;;;;;;;5.35;4.28;;;;;;;26.07;29.87;101185.66;5057060;28;20509;-61
2023/06/08 08:48:45;;;;;;;7.13;4.38;;;;;;;26.10;30.06;101185.22;5060011;28;20296;-61
2023/06/08 08:51:19;;;;;;;6.50;4.20;;;;;;;26.19;30.02;101189.47;5058753;28;20074;-61
2023/06/08 08:53:49;;;;;;;5.97;4.65;;;;;;;26.22;29.92;101183.38;5058247;28;20041;-61
2023/06/08 08:56:20;;;;;;;7.35;4.63;;;;;;;26.30;29.60;101180.25;5058576;28;20045;-61
2023/06/08 08:58:50;;;;;;;6.13;4.18;;;;;;;26.31;29.86;101172.69;5059514;28;20059;-68
2023/06/08 09:01:18;;;;;;;7.03;4.57;;;;;;;26.39;29.79;101166.78;5060351;28;20044;-66
2023/06/08 09:03:46;;;;;;;6.18;3.90;;;;;;;26.47;29.70;101166.50;5056649;28;20403;-66
2023/06/08 09:06:16;;;;;;;5.72;4.15;;;;;;;26.55;29.41;101166.19;5059727;28;20544;-63
2023/06/08 09:08:44;;;;;;;5.32;4.25;;;;;;;26.60;29.45;101162.69;5056335;28;20479;-68
2023/06/08 09:11:12;;;;;;;5.30;4.65;;;;;;;26.65;29.17;101163.72;5053919;28;20091;-68
2023/06/08 09:13:40;;;;;;;6.03;4.43;;;;;;;26.71;29.01;101170.34;5058150;28;20032;-62
2023/06/08 09:16:10;;;;;;;6.15;4.63;;;;;;;26.76;28.86;101162.09;5058427;28;20128;-63
2023/06/08 09:18:39;;;;;;;6.65;4.63;;;;;;;26.79;29.00;101157.97;5060900;28;20044;-62
2023/06/08 09:21:24;;;;;;;6.05;4.63;;;;;;;26.84;28.18;101166.53;5056968;28;20105;-73
2023/06/08 09:24:06;;;;;;;7.00;4.65;;;;;;;26.85;28.80;101166.31;5052644;28;20138;-62
2023/06/08 09:26:39;;;;;;;6.18;5.03;;;;;;;26.83;28.63;101162.03;5039407;28;20083;-63
2023/06/08 09:29:09;;;;;;;5.60;4.57;;;;;;;26.86;28.43;101168.03;5059392;28;20400;-61
2023/06/08 09:31:39;;;;;;;7.03;4.80;;;;;;;26.88;28.51;101170.59;5061473;28;20323;-60
2023/06/08 09:34:10;;;;;;;5.28;4.63;;;;;;;26.89;28.87;101161.94;5063966;28;20056;-61
2023/06/08 09:36:39;;;;;;;7.28;5.00;;;;;;;26.92;28.63;101158.66;5059156;28;20396;-61
2023/06/08 09:39:08;;;;;;;6.93;4.88;;;;;;;26.94;28.65;101161.25;5052022;28;20052;-61
2023/06/08 09:41:37;;;;;;;6.68;4.50;;;;;;;26.94;28.37;101158.44;5056305;28;20055;-61
2023/06/08 09:44:20;;;;;;;6.13;4.95;;;;;;;26.97;28.46;101161.59;5059290;28;20347;-61
2023/06/08 09:46:48;;;;;;;5.70;4.57;;;;;;;26.98;28.84;101160.53;5060480;28;20060;-62
2023/06/08 09:49:18;;;;;;;5.80;4.68;;;;;;;27.04;28.67;101155.91;5057412;28;20036;-62
2023/06/08 09:51:49;;;;;;;5.45;4.55;;;;;;;27.08;28.63;101151.53;5058932;28;20055;-63
2023/06/08 09:54:20;;;;;;;4.93;4.15;;;;;;;27.10;28.82;101152.16;5059428;28;20594;-61
2023/06/08 09:56:53;;;;;;;6.00;4.22;;;;;;;27.16;28.49;101150.38;5057841;28;20072;-62
2023/06/08 09:59:29;;;;;;;5.85;4.63;;;;;;;27.24;28.90;101155.66;5060315;28;20460;-69
2023/06/08 10:02:03;;;;;;;6.07;4.75;;;;;;;27.28;28.48;101145.69;5058808;28;20057;-67
2023/06/08 10:04:36;;;;;;;6.00;5.10;;;;;;;27.30;28.51;101157.53;5061096;28;20033;-69
2023/06/08 10:07:10;;;;;;;5.32;4.72;;;;;;;27.33;27.88;101149.47;5059828;28;20060;-63
2023/06/08 10:09:42;;;;;;;7.85;4.97;;;;;;;27.32;28.26;101146.91;5059771;28;20067;-63
2023/06/08 10:12:13;;;;;;;7.38;5.47;;;;;;;27.34;28.19;101141.91;5058008;28;20416;-63
2023/06/08 10:14:42;;;;;;;6.40;5.10;;;;;;;27.34;28.16;101134.34;5062477;28;20504;-63
2023/06/08 10:17:11;;;;;;;5.75;5.00;;;;;;;27.35;28.13;101130.44;5063643;28;20055;-63
2023/06/08 10:19:39;;;;;;;6.43;4.95;;;;;;;27.34;27.78;101137.16;5062217;28;20073;-63
2023/06/08 10:22:09;;;;;;;6.22;4.88;;;;;;;27.35;27.92;101135.19;5055967;28;20048;-63
2023/06/08 10:24:38;;;;;;;6.65;5.22;;;;;;;27.31;28.21;101136.75;5058576;28;20049;-63
2023/06/08 10:27:18;;;;;;;5.55;4.82;;;;;;;27.34;28.14;101136.28;5057537;28;20053;-63
2023/06/08 10:29:54;;;;;;;5.60;4.68;;;;;;;27.33;28.34;101131.75;5061302;28;20032;-63
2023/06/08 10:32:29;;;;;;;5.10;4.50;;;;;;;27.35;28.32;101135.19;5059919;28;20056;-64
2023/06/08 10:34:59;;;;;;;5.82;4.50;;;;;;;27.34;28.23;101119.44;5062632;28;20048;-63
2023/06/08 10:37:29;;;;;;;5.95;4.60;;;;;;;27.39;28.12;101126.03;5059252;28;20569;-64
2023/06/08 10:39:58;;;;;;;6.22;4.95;;;;;;;27.42;28.22;101130.31;5062403;28;20074;-64
2023/06/08 10:42:27;;;;;;;6.30;5.00;;;;;;;27.40;28.23;101136.19;5073200;28;20132;-66
2023/06/08 10:44:56;;;;;;;6.07;4.88;;;;;;;27.42;27.93;101125.56;5058939;28;20039;-66
2023/06/08 10:47:25;;;;;;;6.63;5.22;;;;;;;27.41;28.20;101117.38;5058672;28;20040;-65
2023/06/08 10:49:57;;;;;;;6.63;5.00;;;;;;;27.44;27.65;101122.53;5060879;28;20511;-68
2023/06/08 10:52:26;;;;;;;6.80;5.22;;;;;;;27.36;27.59;101120.06;5068280;28;20052;-69
2023/06/08 10:54:57;;;;;;;5.75;5.10;;;;;;;27.37;27.40;101116.97;5061332;28;20542;-68
2023/06/08 10:57:36;;;;;;;6.25;5.20;;;;;;;27.32;27.79;101116.00;5067088;28;20508;-69
2023/06/08 11:00:42;;;;;;;6.75;5.32;;;;;;;27.23;27.70;101109.84;5063268;28;20037;-64
2023/06/08 11:03:15;;;;;;;6.72;5.38;;;;;;;27.22;27.85;101112.91;5062808;28;20403;-64
2023/06/08 11:05:48;;;;;;;5.70;4.50;;;;;;;27.19;28.25;101104.97;5061024;28;20037;-63
2023/06/08 11:08:16;;;;;;;6.40;5.22;;;;;;;27.14;28.30;101100.88;5062446;28;20045;-64
2023/06/08 11:10:52;;;;;;;5.93;5.05;;;;;;;27.15;27.95;101110.16;5060063;28;20136;-63
2023/06/08 11:13:20;;;;;;;6.57;5.20;;;;;;;27.08;28.16;101113.06;5062071;28;20074;-62
2023/06/08 11:15:48;;;;;;;6.20;5.45;;;;;;;27.06;27.97;101105.97;5061181;28;20454;-63
2023/06/08 11:18:19;;;;;;;7.40;5.72;;;;;;;27.06;27.92;101106.81;5063103;28;20110;-63
2023/06/08 11:20:48;;;;;;;6.97;5.25;;;;;;;27.01;28.07;101098.25;5056871;28;20055;-63
2023/06/08 11:23:16;;;;;;;6.68;5.35;;;;;;;27.00;28.58;101099.34;5059797;28;20516;-64
2023/06/08 11:25:46;;;;;;;6.53;5.68;;;;;;;27.00;28.02;101090.94;5060434;28;20057;-64
2023/06/08 11:28:14;;;;;;;6.78;5.38;;;;;;;26.96;27.97;101106.53;5063619;28;20040;-63
2023/06/08 11:30:43;;;;;;;5.97;5.38;;;;;;;26.93;27.84;101103.34;5053645;28;20048;-64
2023/06/08 11:33:14;;;;;;;7.40;5.90;;;;;;;26.87;27.85;101102.34;5060172;28;20048;-63
2023/06/08 11:35:42;;;;;;;;;;;;;;;26.54;28.31;101104.69;5062973;28;20063;-63
2023/06/08 11:38:11;;;;;;;5.65;4.70;;;;;;;26.72;27.74;101099.06;5058095;28;20403;-63
2023/06/08 11:40:41;;;;;;;6.07;5.47;;;;;;;26.69;27.89;101093.94;5060530;28;20158;-62